Terminal Aerodrome Forecast
Issued by NWS Northern Indiana

Home | Current Version | Previous Version | Graphics & Text | Print | Product List | Glossary On
Versions: 1 2 3 4 5 6 7 8 9 10 11 12 13 14 15
000
FTUS43 KIWX 251652 AAA
TAFFWA
TAF AMD
KFWA 251652Z 2517/2612 27019G28KT P6SM BKN025
     FM252000 27017G24KT P6SM BKN040
     FM260000 27012KT P6SM BKN035
     FM261100 22006KT P6SM BKN150=

USA.gov is the U.S. government's official web portal to all federal, state and local government web resources and services.